Time;durP1;ratioP1;P1;durP2;ratioP2;P2;SDS_P1;SDS_P2;PMS_P1;PMS_P2;Temp;Humidity;BMP_temperature;BMP_pressure;BME280_temperature;BME280_humidity;BME280_pressure;Samples;Min_cycle;Max_cycle;Signal;HPM_P1;HPM_P2
2023/06/26 00:02:12;;;;;;;8.57;6.07;;;;;;;;;;765904;180;1007945;-64
2023/06/26 00:04:37;;;;;;;7.13;5.13;;;;;;;;;;762184;180;824454;-67
2023/06/26 00:07:04;;;;;;;11.13;6.20;;;;;;;;;;763909;182;909988;-65
2023/06/26 00:09:30;;;;;;;7.80;5.10;;;;;;;;;;755833;183;921463;-65
2023/06/26 00:11:56;;;;;;;9.30;5.63;;;;;;;;;;763634;179;921410;-64
2023/06/26 00:14:22;;;;;;;8.53;6.70;;;;;;;;;;762723;182;851415;-64
2023/06/26 00:16:49;;;;;;;13.20;5.73;;;;;;;;;;776124;180;918962;-65
2023/06/26 00:19:13;;;;;;;10.00;5.43;;;;;;;;;;764625;180;919813;-63
2023/06/26 00:21:39;;;;;;;7.33;5.33;;;;;;;;;;778872;181;916997;-64
2023/06/26 00:24:05;;;;;;;7.00;6.17;;;;;;;;;;771226;181;918901;-65
2023/06/26 00:26:31;;;;;;;10.07;6.97;;;;;;;;;;763586;180;918024;-64
2023/06/26 00:28:57;;;;;;;9.63;6.70;;;;;;;;;;769122;179;916800;-66
2023/06/26 00:31:23;;;;;;;10.13;6.30;;;;;;;;;;775382;181;919165;-63
2023/06/26 00:33:48;;;;;;;9.93;6.37;;;;;;;;;;767059;181;912543;-65
2023/06/26 00:36:14;;;;;;;12.53;6.37;;;;;;;;;;769202;181;941424;-64
2023/06/26 00:38:40;;;;;;;11.23;7.07;;;;;;;;;;770913;178;918203;-67
2023/06/26 00:41:12;;;;;;;13.33;6.20;;;;;;;;;;763941;181;822101;-65
2023/06/26 00:43:32;;;;;;;8.33;5.80;;;;;;;;;;766404;181;918944;-66
2023/06/26 00:45:58;;;;;;;8.17;5.90;;;;;;;;;;770744;178;847527;-63
2023/06/26 00:48:23;;;;;;;9.73;6.03;;;;;;;;;;768615;181;919771;-63
2023/06/26 00:50:49;;;;;;;10.47;5.77;;;;;;;;;;761175;180;945579;-66
2023/06/26 00:53:15;;;;;;;9.00;6.20;;;;;;;;;;766242;181;919740;-65
2023/06/26 00:55:41;;;;;;;10.83;6.50;;;;;;;;;;768361;182;902281;-65
2023/06/26 00:58:07;;;;;;;13.63;6.40;;;;;;;;;;764609;182;920705;-66
2023/06/26 01:00:33;;;;;;;9.33;5.53;;;;;;;;;;763510;182;918721;-64
2023/06/26 01:02:59;;;;;;;7.83;6.00;;;;;;;;;;773656;181;918595;-64
2023/06/26 01:05:24;;;;;;;9.32;6.00;;;;;;;;;;762011;182;920670;-64
2023/06/26 01:07:50;;;;;;;10.73;5.60;;;;;;;;;;767374;182;909990;-66
2023/06/26 01:10:16;;;;;;;6.83;4.90;;;;;;;;;;769504;182;855222;-64
2023/06/26 01:12:42;;;;;;;6.50;5.40;;;;;;;;;;767077;182;921657;-66
2023/06/26 01:15:08;;;;;;;7.37;5.87;;;;;;;;;;768482;181;918844;-65
2023/06/26 01:17:34;;;;;;;5.57;3.67;;;;;;;;;;769035;181;893250;-67
2023/06/26 01:20:00;;;;;;;8.47;5.40;;;;;;;;;;760056;178;913093;-67
2023/06/26 01:22:28;;;;;;;11.83;5.93;;;;;;;;;;746866;186;915651;-64
2023/06/26 01:25:09;;;;;;;14.23;6.83;;;;;;;;;;743041;185;918791;-67
2023/06/26 01:27:35;;;;;;;6.82;5.15;;;;;;;;;;765088;179;917911;-66
2023/06/26 01:30:01;;;;;;;10.75;6.07;;;;;;;;;;768109;180;919744;-66
2023/06/26 01:32:27;;;;;;;9.10;6.80;;;;;;;;;;762861;180;924215;-63
2023/06/26 01:34:53;;;;;;;10.57;6.40;;;;;;;;;;771457;178;919270;-66
2023/06/26 01:37:18;;;;;;;9.67;6.50;;;;;;;;;;770052;180;919453;-68
2023/06/26 01:39:45;;;;;;;10.50;6.10;;;;;;;;;;768582;181;918444;-67
2023/06/26 01:42:10;;;;;;;9.50;6.47;;;;;;;;;;768813;181;913357;-64
2023/06/26 01:44:36;;;;;;;11.10;5.80;;;;;;;;;;772275;180;919409;-66
2023/06/26 01:47:02;;;;;;;11.93;6.70;;;;;;;;;;772193;178;843759;-66
2023/06/26 01:49:29;;;;;;;9.00;6.23;;;;;;;;;;764164;179;919225;-64
2023/06/26 01:51:59;;;;;;;11.73;6.43;;;;;;;;;;759631;181;911453;-64
2023/06/26 01:54:24;;;;;;;11.13;6.67;;;;;;;;;;768551;181;917725;-65
2023/06/26 01:56:50;;;;;;;15.33;7.87;;;;;;;;;;764333;182;918718;-63
2023/06/26 01:59:16;;;;;;;15.33;6.43;;;;;;;;;;769646;182;919320;-65
2023/06/26 02:01:41;;;;;;;8.50;5.20;;;;;;;;;;770669;181;919171;-64
2023/06/26 02:04:07;;;;;;;13.10;6.17;;;;;;;;;;762543;182;918383;-66
2023/06/26 02:06:33;;;;;;;8.57;5.93;;;;;;;;;;765205;181;920409;-65
2023/06/26 02:09:00;;;;;;;16.25;6.50;;;;;;;;;;763315;182;927619;-67
2023/06/26 02:11:25;;;;;;;10.93;6.43;;;;;;;;;;767590;182;920463;-67
2023/06/26 02:13:51;;;;;;;11.87;7.30;;;;;;;;;;763062;182;919499;-68
2023/06/26 02:16:16;;;;;;;10.03;6.07;;;;;;;;;;763303;182;918797;-64
2023/06/26 02:18:42;;;;;;;9.20;6.60;;;;;;;;;;773812;181;918630;-66
2023/06/26 02:21:08;;;;;;;11.57;6.90;;;;;;;;;;769180;182;914652;-64
2023/06/26 02:23:34;;;;;;;12.73;7.27;;;;;;;;;;768360;179;914839;-65
2023/06/26 02:26:00;;;;;;;8.50;5.70;;;;;;;;;;771089;182;919227;-66
2023/06/26 02:28:26;;;;;;;10.03;6.10;;;;;;;;;;770444;181;918774;-64
2023/06/26 02:30:52;;;;;;;9.50;5.57;;;;;;;;;;761067;182;917732;-67
2023/06/26 02:33:17;;;;;;;12.23;5.93;;;;;;;;;;764434;182;923540;-67
2023/06/26 02:35:43;;;;;;;8.00;5.70;;;;;;;;;;774573;182;863924;-65
2023/06/26 02:38:09;;;;;;;9.13;5.80;;;;;;;;;;767780;181;919836;-65
2023/06/26 02:40:35;;;;;;;8.50;6.15;;;;;;;;;;763189;181;916527;-64
2023/06/26 02:43:01;;;;;;;8.33;5.60;;;;;;;;;;773520;181;919021;-65
2023/06/26 02:45:27;;;;;;;11.10;6.17;;;;;;;;;;772432;181;919593;-65
2023/06/26 02:47:53;;;;;;;12.13;6.00;;;;;;;;;;769840;180;922680;-66
2023/06/26 02:50:18;;;;;;;11.70;5.80;;;;;;;;;;777803;180;918708;-65
2023/06/26 02:52:44;;;;;;;10.77;6.47;;;;;;;;;;770689;180;919391;-65
2023/06/26 02:55:10;;;;;;;10.43;5.70;;;;;;;;;;765389;181;914302;-65
2023/06/26 02:57:36;;;;;;;16.83;5.40;;;;;;;;;;763533;181;1020810;-67
2023/06/26 03:00:02;;;;;;;8.87;5.70;;;;;;;;;;772833;181;917654;-65
2023/06/26 03:02:28;;;;;;;8.07;5.85;;;;;;;;;;755513;183;920443;-65
2023/06/26 03:04:53;;;;;;;13.67;6.20;;;;;;;;;;764048;181;919385;-66
2023/06/26 03:07:19;;;;;;;11.63;7.10;;;;;;;;;;769738;181;918846;-65
2023/06/26 03:09:45;;;;;;;11.63;7.13;;;;;;;;;;763699;179;915074;-67
2023/06/26 03:12:11;;;;;;;13.47;6.70;;;;;;;;;;764960;181;915095;-65
2023/06/26 03:14:37;;;;;;;11.33;6.23;;;;;;;;;;775235;182;895767;-65
2023/06/26 03:17:03;;;;;;;10.33;6.57;;;;;;;;;;767058;181;916376;-65
2023/06/26 03:19:28;;;;;;;12.87;6.47;;;;;;;;;;762812;181;920484;-65
2023/06/26 03:21:55;;;;;;;9.83;5.93;;;;;;;;;;770758;179;915900;-65
2023/06/26 03:24:20;;;;;;;10.40;6.50;;;;;;;;;;764022;182;918157;-65
2023/06/26 03:26:46;;;;;;;12.35;6.72;;;;;;;;;;763040;182;919726;-65
2023/06/26 03:29:12;;;;;;;11.33;7.40;;;;;;;;;;765607;182;919012;-65
2023/06/26 03:31:38;;;;;;;14.23;6.47;;;;;;;;;;776314;178;916396;-66
2023/06/26 03:34:04;;;;;;;13.43;6.93;;;;;;;;;;772338;181;817315;-65
2023/06/26 03:36:29;;;;;;;17.07;6.40;;;;;;;;;;769130;182;921733;-65
2023/06/26 03:38:56;;;;;;;10.83;7.43;;;;;;;;;;771073;182;818171;-65
2023/06/26 03:41:21;;;;;;;18.27;8.20;;;;;;;;;;762688;182;916760;-65
2023/06/26 03:43:47;;;;;;;14.77;6.20;;;;;;;;;;767810;182;915902;-65
2023/06/26 03:46:13;;;;;;;10.37;6.73;;;;;;;;;;768415;182;898522;-66
2023/06/26 03:48:39;;;;;;;18.30;7.20;;;;;;;;;;765866;178;918488;-66
2023/06/26 03:51:06;;;;;;;15.20;7.37;;;;;;;;;;770992;180;920195;-65
2023/06/26 03:53:30;;;;;;;14.10;6.90;;;;;;;;;;773342;177;919177;-65
2023/06/26 03:55:56;;;;;;;15.73;7.83;;;;;;;;;;771142;181;916708;-65
2023/06/26 03:58:22;;;;;;;10.30;6.80;;;;;;;;;;767020;180;918892;-65
2023/06/26 04:00:48;;;;;;;10.50;7.50;;;;;;;;;;766360;181;918952;-66
2023/06/26 04:03:14;;;;;;;8.17;6.80;;;;;;;;;;772781;181;918679;-66
2023/06/26 04:05:39;;;;;;;12.23;8.57;;;;;;;;;;767784;181;919701;-66
2023/06/26 04:08:05;;;;;;;12.00;7.00;;;;;;;;;;765569;181;863134;-67
2023/06/26 04:10:31;;;;;;;17.00;7.43;;;;;;;;;;773099;181;819516;-66
2023/06/26 04:12:57;;;;;;;14.30;8.30;;;;;;;;;;765316;181;918547;-66
2023/06/26 04:15:23;;;;;;;15.23;7.68;;;;;;;;;;767312;181;1023152;-65
2023/06/26 04:17:49;;;;;;;15.80;9.07;;;;;;;;;;764913;180;876603;-65
2023/06/26 04:20:15;;;;;;;17.77;8.97;;;;;;;;;;765514;180;921463;-65
2023/06/26 04:22:40;;;;;;;11.50;7.60;;;;;;;;;;750069;186;914181;-65
2023/06/26 04:25:06;;;;;;;12.80;8.03;;;;;;;;;;743485;185;924180;-65
2023/06/26 04:27:32;;;;;;;16.60;8.40;;;;;;;;;;763363;180;918539;-65
2023/06/26 04:29:58;;;;;;;17.43;8.87;;;;;;;;;;766245;182;919959;-64
2023/06/26 04:32:24;;;;;;;19.00;7.70;;;;;;;;;;771583;181;919474;-65
2023/06/26 04:34:50;;;;;;;12.35;9.30;;;;;;;;;;764156;182;919302;-65
2023/06/26 04:37:17;;;;;;;11.90;8.50;;;;;;;;;;770986;181;941808;-65
2023/06/26 04:39:44;;;;;;;25.63;9.60;;;;;;;;;;768320;182;818836;-65
2023/06/26 04:42:11;;;;;;;14.73;9.07;;;;;;;;;;770447;181;633022;-66
2023/06/26 04:44:37;;;;;;;12.87;9.60;;;;;;;;;;767590;180;917535;-66
2023/06/26 04:47:01;;;;;;;17.93;10.53;;;;;;;;;;761263;180;919438;-65
2023/06/26 04:49:28;;;;;;;16.63;10.20;;;;;;;;;;764494;180;919282;-65
2023/06/26 04:51:53;;;;;;;19.37;10.47;;;;;;;;;;772606;182;818646;-66
2023/06/26 04:54:19;;;;;;;16.10;10.13;;;;;;;;;;769698;178;818206;-65
2023/06/26 04:56:47;;;;;;;15.17;11.10;;;;;;;;;;763559;177;928021;-67
2023/06/26 04:59:13;;;;;;;15.77;9.57;;;;;;;;;;770173;182;918318;-67
2023/06/26 05:01:39;;;;;;;11.80;8.63;;;;;;;;;;773850;179;910367;-65
2023/06/26 05:04:02;;;;;;;8.40;6.83;;;;;;;;;;770440;177;816672;-67
2023/06/26 05:06:28;;;;;;;16.60;8.90;;;;;;;;;;771938;180;816401;-65
2023/06/26 05:08:54;;;;;;;15.80;8.67;;;;;;;;;;780379;177;857116;-66
2023/06/26 05:11:20;;;;;;;11.90;8.00;;;;;;;;;;771739;180;919371;-67
2023/06/26 05:13:46;;;;;;;16.30;7.97;;;;;;;;;;766704;178;917689;-66
2023/06/26 05:16:12;;;;;;;10.83;8.13;;;;;;;;;;773780;181;916862;-68
2023/06/26 05:18:38;;;;;;;10.93;7.70;;;;;;;;;;770458;180;917260;-66
2023/06/26 05:21:04;;;;;;;13.40;8.47;;;;;;;;;;765725;180;917787;-66
2023/06/26 05:23:31;;;;;;;13.27;8.57;;;;;;;;;;768421;181;1004522;-66
2023/06/26 05:25:57;;;;;;;16.20;8.90;;;;;;;;;;770816;179;920519;-67
2023/06/26 05:28:24;;;;;;;12.77;8.73;;;;;;;;;;763575;180;919059;-66
2023/06/26 05:30:49;;;;;;;14.80;9.30;;;;;;;;;;759238;182;919580;-67
2023/06/26 05:33:15;;;;;;;15.90;9.23;;;;;;;;;;764019;182;919022;-67
2023/06/26 05:35:41;;;;;;;15.67;9.00;;;;;;;;;;742787;186;924050;-66
2023/06/26 05:38:07;;;;;;;13.70;8.10;;;;;;;;;;756667;182;919787;-67
2023/06/26 05:40:34;;;;;;;12.57;8.73;;;;;;;;;;769812;180;801991;-65
2023/06/26 05:42:59;;;;;;;13.27;8.33;;;;;;;;;;765778;182;714351;-67
2023/06/26 05:45:24;;;;;;;9.87;7.40;;;;;;;;;;764252;179;920640;-67
2023/06/26 05:47:50;;;;;;;14.67;8.30;;;;;;;;;;772702;182;915625;-66
2023/06/26 05:50:17;;;;;;;14.93;8.50;;;;;;;;;;765482;181;920234;-66
2023/06/26 05:52:43;;;;;;;12.43;7.50;;;;;;;;;;769489;182;919201;-66
2023/06/26 05:55:09;;;;;;;14.60;8.40;;;;;;;;;;766243;181;918559;-66
2023/06/26 05:57:35;;;;;;;9.57;6.63;;;;;;;;;;761347;180;918750;-66
2023/06/26 06:00:03;;;;;;;10.73;7.03;;;;;;;;;;766695;182;919466;-66
2023/06/26 06:02:27;;;;;;;9.00;7.00;;;;;;;;;;765209;181;918886;-66
2023/06/26 06:04:53;;;;;;;9.17;6.40;;;;;;;;;;774886;180;919063;-66
2023/06/26 06:07:19;;;;;;;7.80;6.50;;;;;;;;;;763560;182;917502;-67
2023/06/26 06:09:45;;;;;;;9.60;6.97;;;;;;;;;;765902;182;919064;-67
2023/06/26 06:12:11;;;;;;;10.70;6.20;;;;;;;;;;766769;181;920616;-67
2023/06/26 06:14:36;;;;;;;13.87;6.07;;;;;;;;;;771687;181;917629;-65
2023/06/26 06:17:02;;;;;;;7.10;5.77;;;;;;;;;;768360;181;915436;-66
2023/06/26 06:19:29;;;;;;;10.45;6.22;;;;;;;;;;770398;178;914807;-65
2023/06/26 06:21:55;;;;;;;8.07;5.77;;;;;;;;;;774585;177;814316;-67
2023/06/26 06:24:21;;;;;;;9.67;5.70;;;;;;;;;;771197;181;919632;-66
2023/06/26 06:26:47;;;;;;;10.60;6.70;;;;;;;;;;770605;181;871901;-66
2023/06/26 06:29:13;;;;;;;10.33;5.90;;;;;;;;;;773127;179;915324;-67
2023/06/26 06:31:39;;;;;;;9.47;6.90;;;;;;;;;;769354;181;919674;-66
2023/06/26 06:34:04;;;;;;;8.02;6.07;;;;;;;;;;768940;181;919455;-66
2023/06/26 06:36:31;;;;;;;9.07;5.67;;;;;;;;;;765995;182;906843;-66
2023/06/26 06:38:56;;;;;;;8.37;5.10;;;;;;;;;;768175;177;878764;-67
2023/06/26 06:41:22;;;;;;;7.60;5.13;;;;;;;;;;768155;181;873742;-66
2023/06/26 06:43:48;;;;;;;11.17;5.30;;;;;;;;;;773912;182;920132;-65
2023/06/26 06:46:14;;;;;;;8.20;5.50;;;;;;;;;;768743;182;921869;-65
2023/06/26 06:48:39;;;;;;;8.27;6.20;;;;;;;;;;768214;181;923767;-66
2023/06/26 06:51:05;;;;;;;8.83;5.63;;;;;;;;;;761185;182;919302;-66
2023/06/26 06:53:31;;;;;;;9.30;5.40;;;;;;;;;;769690;182;915144;-67
2023/06/26 06:55:57;;;;;;;8.27;6.00;;;;;;;;;;756514;182;825904;-67
2023/06/26 06:58:23;;;;;;;6.90;5.57;;;;;;;;;;770496;182;632910;-66
2023/06/26 07:00:49;;;;;;;7.23;5.40;;;;;;;;;;770452;178;626895;-66
2023/06/26 07:03:15;;;;;;;7.20;5.30;;;;;;;;;;768537;181;918409;-66
2023/06/26 07:05:42;;;;;;;7.18;5.47;;;;;;;;;;762216;182;921488;-66
2023/06/26 07:08:08;;;;;;;8.60;5.70;;;;;;;;;;774481;181;779325;-69
2023/06/26 07:10:33;;;;;;;8.60;5.20;;;;;;;;;;762545;179;816455;-66
2023/06/26 07:12:59;;;;;;;8.73;6.00;;;;;;;;;;767469;180;920713;-67
2023/06/26 07:15:25;;;;;;;9.40;5.63;;;;;;;;;;764596;180;897552;-67
2023/06/26 07:17:51;;;;;;;6.23;4.37;;;;;;;;;;769432;180;901427;-67
2023/06/26 07:20:17;;;;;;;9.50;5.47;;;;;;;;;;765395;182;919399;-68
2023/06/26 07:22:44;;;;;;;7.33;5.27;;;;;;;;;;763779;179;917177;-65
2023/06/26 07:25:09;;;;;;;7.57;5.27;;;;;;;;;;770147;180;849174;-68
2023/06/26 07:27:34;;;;;;;10.97;5.90;;;;;;;;;;762772;179;893724;-65
2023/06/26 07:30:00;;;;;;;6.57;5.73;;;;;;;;;;760295;181;941995;-66
2023/06/26 07:32:26;;;;;;;8.17;5.40;;;;;;;;;;771745;181;914330;-66
2023/06/26 07:34:52;;;;;;;8.30;6.40;;;;;;;;;;766912;180;917596;-67
2023/06/26 07:37:18;;;;;;;6.77;5.33;;;;;;;;;;766714;180;893741;-66
2023/06/26 07:39:43;;;;;;;6.68;4.70;;;;;;;;;;767284;179;863273;-66
2023/06/26 07:42:09;;;;;;;7.57;5.87;;;;;;;;;;765778;180;938573;-67
2023/06/26 07:44:35;;;;;;;7.00;5.10;;;;;;;;;;771002;180;919757;-65
2023/06/26 07:47:01;;;;;;;10.40;6.00;;;;;;;;;;765375;181;915920;-67
2023/06/26 07:49:27;;;;;;;7.13;5.00;;;;;;;;;;773662;178;811905;-65
2023/06/26 07:51:53;;;;;;;8.70;5.43;;;;;;;;;;769884;180;915421;-66
2023/06/26 07:54:19;;;;;;;6.50;4.83;;;;;;;;;;772837;180;918795;-66
2023/06/26 07:56:50;;;;;;;8.87;5.07;;;;;;;;;;774657;181;919068;-67
2023/06/26 07:59:16;;;;;;;9.07;5.40;;;;;;;;;;772834;181;918480;-67
2023/06/26 08:01:42;;;;;;;6.90;5.20;;;;;;;;;;763691;181;915628;-66
2023/06/26 08:04:10;;;;;;;7.18;4.90;;;;;;;;;;768241;182;916425;-67
2023/06/26 08:06:34;;;;;;;6.00;5.10;;;;;;;;;;771030;182;814674;-69
2023/06/26 08:09:00;;;;;;;8.33;5.47;;;;;;;;;;768912;179;917891;-66
2023/06/26 08:11:25;;;;;;;6.10;4.63;;;;;;;;;;768425;179;908555;-68
2023/06/26 08:13:52;;;;;;;7.83;5.00;;;;;;;;;;771489;182;896779;-65
2023/06/26 08:16:17;;;;;;;6.83;5.77;;;;;;;;;;765328;182;894169;-66
2023/06/26 08:18:43;;;;;;;8.53;5.40;;;;;;;;;;767204;181;919632;-66
2023/06/26 08:21:09;;;;;;;6.60;4.97;;;;;;;;;;772043;182;919535;-69
2023/06/26 08:23:35;;;;;;;8.87;5.23;;;;;;;;;;760786;182;874464;-68
2023/06/26 08:26:01;;;;;;;7.67;5.30;;;;;;;;;;768370;180;921377;-67
2023/06/26 08:28:26;;;;;;;9.07;4.70;;;;;;;;;;766594;182;914982;-65
2023/06/26 08:30:53;;;;;;;9.03;4.70;;;;;;;;;;767874;182;818652;-68
2023/06/26 08:33:18;;;;;;;6.40;4.80;;;;;;;;;;763088;182;924026;-68
2023/06/26 08:35:44;;;;;;;6.07;4.57;;;;;;;;;;761053;181;921586;-67
2023/06/26 08:38:10;;;;;;;6.77;4.17;;;;;;;;;;774772;181;799478;-66
2023/06/26 08:40:36;;;;;;;11.73;4.50;;;;;;;;;;767359;178;913322;-66
2023/06/26 08:43:03;;;;;;;5.87;4.35;;;;;;;;;;770050;180;816970;-66
2023/06/26 08:45:28;;;;;;;8.10;5.07;;;;;;;;;;773435;179;889479;-67
2023/06/26 08:47:53;;;;;;;6.53;5.30;;;;;;;;;;766824;181;819402;-68
2023/06/26 08:50:19;;;;;;;9.63;5.10;;;;;;;;;;768623;180;917423;-68
2023/06/26 08:52:46;;;;;;;6.17;4.50;;;;;;;;;;766057;178;860734;-67
2023/06/26 08:55:12;;;;;;;8.00;5.50;;;;;;;;;;767163;180;816425;-67
2023/06/26 08:57:38;;;;;;;7.17;5.60;;;;;;;;;;768731;181;918908;-68
2023/06/26 09:00:04;;;;;;;12.40;5.40;;;;;;;;;;772074;181;918107;-68
2023/06/26 09:02:30;;;;;;;6.50;4.93;;;;;;;;;;774933;181;817590;-67
2023/06/26 09:04:56;;;;;;;6.27;4.83;;;;;;;;;;767474;181;952963;-67
2023/06/26 09:07:22;;;;;;;7.67;4.80;;;;;;;;;;766012;182;919312;-68
2023/06/26 09:09:47;;;;;;;5.77;4.53;;;;;;;;;;767645;181;917900;-66
2023/06/26 09:12:13;;;;;;;6.40;5.03;;;;;;;;;;767124;181;868631;-68
2023/06/26 09:14:39;;;;;;;7.20;5.50;;;;;;;;;;765025;180;885522;-68
2023/06/26 09:17:05;;;;;;;8.10;5.43;;;;;;;;;;766919;179;883083;-68
2023/06/26 09:19:31;;;;;;;7.33;4.77;;;;;;;;;;777440;180;918528;-68
2023/06/26 09:21:57;;;;;;;5.93;4.73;;;;;;;;;;768545;180;873400;-69
2023/06/26 09:24:22;;;;;;;7.83;5.40;;;;;;;;;;767826;182;915744;-67
2023/06/26 09:26:49;;;;;;;7.00;4.97;;;;;;;;;;769066;182;906487;-69
2023/06/26 09:29:15;;;;;;;8.40;4.93;;;;;;;;;;765251;181;921761;-68
2023/06/26 09:31:40;;;;;;;10.57;4.83;;;;;;;;;;761589;182;927137;-69
2023/06/26 09:34:06;;;;;;;11.30;6.30;;;;;;;;;;774837;181;920766;-67
2023/06/26 09:36:33;;;;;;;9.57;5.47;;;;;;;;;;761311;182;920112;-66
2023/06/26 09:39:01;;;;;;;7.40;4.60;;;;;;;;;;765832;179;918926;-67
2023/06/26 09:41:27;;;;;;;7.63;4.90;;;;;;;;;;768202;181;915304;-67
2023/06/26 09:43:53;;;;;;;6.50;5.50;;;;;;;;;;773280;182;913835;-68
2023/06/26 09:46:25;;;;;;;14.90;5.50;;;;;;;;;;770043;180;919503;-67
2023/06/26 09:48:50;;;;;;;6.40;4.57;;;;;;;;;;776818;180;629627;-67
2023/06/26 09:51:17;;;;;;;6.03;4.77;;;;;;;;;;769126;180;838955;-68
2023/06/26 09:53:43;;;;;;;6.87;5.53;;;;;;;;;;754796;183;866669;-69
2023/06/26 09:56:08;;;;;;;7.13;4.87;;;;;;;;;;747143;184;872648;-67
2023/06/26 09:58:34;;;;;;;6.30;5.10;;;;;;;;;;749619;183;858892;-68
2023/06/26 10:01:00;;;;;;;7.83;5.47;;;;;;;;;;764031;180;917546;-68
2023/06/26 10:03:26;;;;;;;5.70;4.97;;;;;;;;;;764001;181;919220;-68
2023/06/26 10:05:52;;;;;;;9.37;5.37;;;;;;;;;;764124;180;913837;-68
2023/06/26 10:08:18;;;;;;;7.93;5.00;;;;;;;;;;774966;179;928286;-68
2023/06/26 10:10:44;;;;;;;7.73;5.43;;;;;;;;;;767598;180;919360;-69
2023/06/26 10:13:10;;;;;;;5.40;4.47;;;;;;;;;;762438;181;916799;-66
2023/06/26 10:15:36;;;;;;;6.20;4.90;;;;;;;;;;772175;181;915572;-68
2023/06/26 10:18:02;;;;;;;10.57;5.70;;;;;;;;;;765765;181;920480;-69
2023/06/26 10:20:28;;;;;;;9.97;5.80;;;;;;;;;;770059;181;918274;-68
2023/06/26 10:22:53;;;;;;;9.77;5.50;;;;;;;;;;770083;181;920052;-68
2023/06/26 10:25:20;;;;;;;7.20;5.43;;;;;;;;;;758661;184;918515;-66
2023/06/26 10:27:46;;;;;;;6.17;5.13;;;;;;;;;;766733;179;919979;-68
2023/06/26 10:30:12;;;;;;;8.00;5.47;;;;;;;;;;762192;182;919246;-68
2023/06/26 10:32:38;;;;;;;8.50;5.17;;;;;;;;;;772566;181;902152;-67
2023/06/26 10:35:04;;;;;;;6.47;5.37;;;;;;;;;;764056;181;915376;-68
2023/06/26 10:37:35;;;;;;;5.62;4.80;;;;;;;;;;766535;182;1019997;-67
2023/06/26 10:40:01;;;;;;;6.70;4.80;;;;;;;;;;761540;182;817893;-68
2023/06/26 10:42:33;;;;;;;5.93;4.53;;;;;;;;;;765397;183;821785;-66
2023/06/26 10:45:01;;;;;;;8.03;5.27;;;;;;;;;;761374;180;917855;-68
2023/06/26 10:47:31;;;;;;;7.03;4.70;;;;;;;;;;768851;181;919210;-67
2023/06/26 10:49:57;;;;;;;6.30;4.43;;;;;;;;;;751233;180;919509;-66
2023/06/26 10:52:23;;;;;;;6.93;5.70;;;;;;;;;;757736;181;920095;-67
2023/06/26 10:54:49;;;;;;;5.93;4.67;;;;;;;;;;744063;186;919093;-68
2023/06/26 10:57:15;;;;;;;6.72;4.95;;;;;;;;;;747438;185;914577;-66
2023/06/26 10:59:41;;;;;;;7.43;5.40;;;;;;;;;;753578;183;914421;-66
2023/06/26 11:02:08;;;;;;;6.10;4.90;;;;;;;;;;775717;180;917051;-66
2023/06/26 11:04:38;;;;;;;9.80;5.20;;;;;;;;;;762544;180;916366;-68
2023/06/26 11:07:19;;;;;;;7.07;4.57;;;;;;;;;;770259;178;919395;-69
2023/06/26 11:09:50;;;;;;;6.07;5.20;;;;;;;;;;773748;178;651194;-68
2023/06/26 11:12:16;;;;;;;7.83;5.27;;;;;;;;;;768271;180;918641;-68
2023/06/26 11:14:42;;;;;;;7.60;4.60;;;;;;;;;;752659;185;919260;-66
2023/06/26 11:17:08;;;;;;;8.77;5.00;;;;;;;;;;756320;184;630541;-68
2023/06/26 11:19:34;;;;;;;7.70;5.30;;;;;;;;;;762659;184;633694;-68
2023/06/26 11:22:00;;;;;;;8.10;5.37;;;;;;;;;;750753;184;913022;-68
2023/06/26 11:24:25;;;;;;;6.43;5.30;;;;;;;;;;764474;182;917658;-68
2023/06/26 11:26:52;;;;;;;5.97;5.13;;;;;;;;;;775229;179;701316;-68
2023/06/26 11:29:17;;;;;;;8.47;5.00;;;;;;;;;;768361;182;697829;-65
2023/06/26 11:31:43;;;;;;;8.03;4.10;;;;;;;;;;767728;179;919284;-67
2023/06/26 11:34:11;;;;;;;7.55;4.72;;;;;;;;;;764054;181;919280;-67
2023/06/26 11:36:36;;;;;;;7.10;4.67;;;;;;;;;;771929;181;857099;-65
2023/06/26 11:39:03;;;;;;;7.30;5.43;;;;;;;;;;763201;181;817132;-67
2023/06/26 11:41:28;;;;;;;6.53;5.30;;;;;;;;;;768190;179;917678;-67
2023/06/26 11:43:53;;;;;;;6.00;4.83;;;;;;;;;;775521;180;918132;-67
2023/06/26 11:46:19;;;;;;;8.40;5.30;;;;;;;;;;765135;181;861630;-67
2023/06/26 11:48:45;;;;;;;8.63;5.03;;;;;;;;;;752196;183;918474;-69
2023/06/26 11:51:14;;;;;;;6.73;5.47;;;;;;;;;;758349;184;816184;-67
2023/06/26 11:53:40;;;;;;;6.77;5.13;;;;;;;;;;753800;184;918859;-69
2023/06/26 11:56:09;;;;;;;5.57;4.97;;;;;;;;;;746428;187;935814;-72
2023/06/26 11:58:35;;;;;;;7.97;4.93;;;;;;;;;;744825;187;920305;-69
2023/06/26 12:01:00;;;;;;;5.53;4.40;;;;;;;;;;770598;180;919124;-67
2023/06/26 12:03:27;;;;;;;5.80;4.70;;;;;;;;;;767636;181;917347;-67
2023/06/26 12:05:52;;;;;;;10.07;5.17;;;;;;;;;;757210;183;816654;-68
2023/06/26 12:08:18;;;;;;;5.30;4.60;;;;;;;;;;771583;182;918524;-69
2023/06/26 12:10:44;;;;;;;6.00;4.67;;;;;;;;;;767677;180;918756;-68
2023/06/26 12:13:10;;;;;;;6.20;5.20;;;;;;;;;;768908;179;920974;-69
2023/06/26 12:15:35;;;;;;;5.77;4.63;;;;;;;;;;769699;180;820367;-67
2023/06/26 12:18:01;;;;;;;9.50;5.13;;;;;;;;;;778216;180;622481;-71
2023/06/26 12:20:30;;;;;;;6.10;5.07;;;;;;;;;;771136;179;818328;-70
2023/06/26 12:22:53;;;;;;;5.70;4.80;;;;;;;;;;770566;180;819273;-67
2023/06/26 12:25:23;;;;;;;6.90;5.60;;;;;;;;;;772249;180;920930;-67
2023/06/26 12:27:49;;;;;;;14.83;5.40;;;;;;;;;;770398;180;918492;-70
2023/06/26 12:30:15;;;;;;;8.27;5.70;;;;;;;;;;769543;180;817054;-67
2023/06/26 12:32:40;;;;;;;5.77;4.93;;;;;;;;;;763326;181;816996;-67
2023/06/26 12:35:07;;;;;;;6.47;5.67;;;;;;;;;;768178;181;817425;-70
2023/06/26 12:37:32;;;;;;;6.93;5.23;;;;;;;;;;766182;180;813761;-69
2023/06/26 12:39:58;;;;;;;5.53;4.43;;;;;;;;;;752124;183;816721;-68
2023/06/26 12:42:24;;;;;;;6.33;4.90;;;;;;;;;;760377;181;781187;-67
2023/06/26 12:44:50;;;;;;;5.30;4.20;;;;;;;;;;754196;180;919370;-68
2023/06/26 12:47:16;;;;;;;7.43;5.00;;;;;;;;;;761809;179;816847;-68
2023/06/26 12:49:42;;;;;;;5.03;4.30;;;;;;;;;;767346;180;612481;-67
2023/06/26 12:52:08;;;;;;;6.73;5.40;;;;;;;;;;758510;180;919348;-69
2023/06/26 12:54:34;;;;;;;6.50;5.17;;;;;;;;;;761467;180;919432;-69
2023/06/26 12:57:00;;;;;;;8.00;4.30;;;;;;;;;;765916;180;919116;-66
2023/06/26 12:59:26;;;;;;;6.43;4.80;;;;;;;;;;770244;180;818459;-67
2023/06/26 13:01:52;;;;;;;6.23;4.53;;;;;;;;;;764269;180;918905;-67
2023/06/26 13:04:18;;;;;;;8.63;4.60;;;;;;;;;;756385;180;1020937;-68
2023/06/26 13:06:44;;;;;;;7.40;5.23;;;;;;;;;;767021;181;919838;-66
2023/06/26 13:09:10;;;;;;;9.30;4.77;;;;;;;;;;767809;180;903833;-66
2023/06/26 13:11:35;;;;;;;5.40;4.30;;;;;;;;;;762955;180;854917;-67
2023/06/26 13:14:01;;;;;;;7.83;4.70;;;;;;;;;;775371;180;920690;-67
2023/06/26 13:16:27;;;;;;;6.43;5.03;;;;;;;;;;773248;180;920987;-66
2023/06/26 13:18:53;;;;;;;7.20;5.40;;;;;;;;;;764612;180;772818;-67
2023/06/26 13:21:19;;;;;;;8.53;4.80;;;;;;;;;;761572;180;899531;-67
2023/06/26 13:23:45;;;;;;;5.73;3.80;;;;;;;;;;766229;179;920247;-66
2023/06/26 13:26:10;;;;;;;7.27;5.00;;;;;;;;;;750354;185;917872;-66
2023/06/26 13:28:36;;;;;;;4.83;4.27;;;;;;;;;;743413;185;920745;-66
2023/06/26 13:31:02;;;;;;;5.63;4.50;;;;;;;;;;746862;184;913674;-66
2023/06/26 13:33:28;;;;;;;6.87;4.43;;;;;;;;;;765926;180;920238;-67
2023/06/26 13:35:54;;;;;;;7.10;4.70;;;;;;;;;;766879;180;915230;-66
2023/06/26 13:38:24;;;;;;;8.13;5.13;;;;;;;;;;759211;183;917366;-65
2023/06/26 13:40:46;;;;;;;5.50;4.73;;;;;;;;;;762539;181;820340;-65
2023/06/26 13:43:13;;;;;;;7.57;5.50;;;;;;;;;;760983;180;917472;-65
2023/06/26 13:45:38;;;;;;;8.83;5.17;;;;;;;;;;774358;180;920240;-65
2023/06/26 13:48:04;;;;;;;7.27;5.00;;;;;;;;;;769713;180;918273;-66
2023/06/26 13:50:30;;;;;;;6.23;5.17;;;;;;;;;;750699;182;817537;-65
2023/06/26 13:52:56;;;;;;;6.70;4.30;;;;;;;;;;759328;179;940942;-65
2023/06/26 13:55:22;;;;;;;4.83;4.30;;;;;;;;;;767435;179;817333;-65
2023/06/26 13:57:49;;;;;;;6.40;4.60;;;;;;;;;;763476;180;921524;-65
2023/06/26 14:00:15;;;;;;;6.47;4.37;;;;;;;;;;755741;183;921061;-65
2023/06/26 14:02:40;;;;;;;7.20;4.60;;;;;;;;;;769830;180;916257;-65
2023/06/26 14:05:06;;;;;;;5.27;4.70;;;;;;;;;;767368;180;915392;-64
2023/06/26 14:07:32;;;;;;;5.40;4.13;;;;;;;;;;758619;180;918988;-65
2023/06/26 14:09:57;;;;;;;4.80;3.90;;;;;;;;;;760054;180;919091;-65
2023/06/26 14:12:25;;;;;;;15.97;5.00;;;;;;;;;;758020;183;818050;-65
2023/06/26 14:14:49;;;;;;;5.23;4.00;;;;;;;;;;767010;180;918811;-66
2023/06/26 14:17:16;;;;;;;6.73;4.60;;;;;;;;;;754668;184;814105;-66
2023/06/26 14:19:41;;;;;;;9.70;4.40;;;;;;;;;;771078;181;805315;-65